createdAt,value
2018-12-26T00:00:23.360Z,26.90
2018-12-26T00:02:52.732Z,28.07
2018-12-26T00:05:22.206Z,26.70
2018-12-26T00:07:51.518Z,24.40
2018-12-26T00:10:20.872Z,26.37
2018-12-26T00:12:50.207Z,26.37
2018-12-26T00:15:19.598Z,26.30
2018-12-26T00:17:48.956Z,25.97
2018-12-26T00:20:18.328Z,28.47
2018-12-26T00:22:47.660Z,26.87
2018-12-26T00:25:17.119Z,27.33
2018-12-26T00:27:46.529Z,25.27
2018-12-26T00:30:15.868Z,28.00
2018-12-26T00:32:45.234Z,25.17
2018-12-26T00:35:14.570Z,24.17
2018-12-26T00:37:43.919Z,23.40
2018-12-26T00:40:13.294Z,25.77
2018-12-26T00:42:42.649Z,27.87
2018-12-26T00:45:11.969Z,27.30
2018-12-26T00:47:41.306Z,27.53
2018-12-26T00:50:10.648Z,25.53
2018-12-26T00:52:40.009Z,25.80
2018-12-26T00:55:09.354Z,27.20
2018-12-26T00:57:38.686Z,24.60
2018-12-26T01:00:08.643Z,24.80
2018-12-26T01:02:37.971Z,24.40
2018-12-26T01:05:07.306Z,24.77
2018-12-26T01:07:36.710Z,22.97
2018-12-26T01:10:06.286Z,28.13
2018-12-26T01:12:35.653Z,25.60
2018-12-26T01:15:05.151Z,26.63
2018-12-26T01:17:34.732Z,24.23
2018-12-26T01:20:04.106Z,23.10
2018-12-26T01:22:33.471Z,24.97
2018-12-26T01:25:02.795Z,28.17
2018-12-26T01:27:32.170Z,27.33
2018-12-26T01:30:01.507Z,25.83
2018-12-26T01:32:30.840Z,26.97
2018-12-26T01:35:00.268Z,25.43
2018-12-26T01:37:29.603Z,25.60
2018-12-26T01:39:58.943Z,25.97
2018-12-26T01:42:28.333Z,25.73
2018-12-26T01:44:57.652Z,26.10
2018-12-26T01:47:27.009Z,25.50
2018-12-26T01:49:56.305Z,24.30
2018-12-26T01:52:25.628Z,29.93
2018-12-26T01:54:54.966Z,25.03
2018-12-26T01:57:24.323Z,25.57
2018-12-26T01:59:53.645Z,28.63
2018-12-26T02:02:23.014Z,24.13
2018-12-26T02:04:52.398Z,25.33
2018-12-26T02:07:21.763Z,29.70
2018-12-26T02:09:51.168Z,27.93
2018-12-26T02:12:20.529Z,28.73
2018-12-26T02:14:49.936Z,26.87
2018-12-26T02:17:19.302Z,30.07
2018-12-26T02:19:48.635Z,26.50
2018-12-26T02:22:17.978Z,25.47
2018-12-26T02:24:47.288Z,26.10
2018-12-26T02:27:16.636Z,23.63
2018-12-26T02:29:46.029Z,27.17
2018-12-26T02:32:15.368Z,27.30
2018-12-26T02:34:44.775Z,28.10
2018-12-26T02:37:14.164Z,29.43
2018-12-26T02:39:43.504Z,27.57
2018-12-26T02:42:12.889Z,28.83
2018-12-26T02:44:42.302Z,28.17
2018-12-26T02:47:11.659Z,26.90
2018-12-26T02:49:41.010Z,23.43
2018-12-26T02:52:10.386Z,31.27
2018-12-26T02:54:39.688Z,27.50
2018-12-26T02:57:09.042Z,29.10
2018-12-26T02:59:38.365Z,28.17
2018-12-26T03:02:07.746Z,29.33
2018-12-26T03:04:37.084Z,24.80
2018-12-26T03:07:06.444Z,25.30
2018-12-26T03:09:35.800Z,27.17
2018-12-26T03:12:05.126Z,26.27
2018-12-26T03:14:34.443Z,28.07
2018-12-26T03:17:03.787Z,25.37
2018-12-26T03:19:33.153Z,26.07
2018-12-26T03:22:02.498Z,25.97
2018-12-26T03:24:31.860Z,27.40
2018-12-26T03:27:01.177Z,25.67
2018-12-26T03:29:30.551Z,25.90
2018-12-26T03:31:59.855Z,25.63
2018-12-26T03:34:29.200Z,26.63
2018-12-26T03:36:58.593Z,25.43
2018-12-26T03:39:27.905Z,26.27
2018-12-26T03:41:57.358Z,25.07
2018-12-26T03:44:26.733Z,29.07
2018-12-26T03:46:56.552Z,27.00
2018-12-26T03:49:25.907Z,25.57
2018-12-26T03:51:55.835Z,26.37
2018-12-26T03:54:25.303Z,26.37
2018-12-26T03:56:55.165Z,28.13
2018-12-26T03:59:24.517Z,25.17
2018-12-26T04:01:53.914Z,26.00
2018-12-26T04:04:23.243Z,27.37
2018-12-26T04:06:52.651Z,24.97
2018-12-26T04:09:22.069Z,26.80
2018-12-26T04:11:51.580Z,26.83
2018-12-26T04:14:20.955Z,24.50
2018-12-26T04:16:50.579Z,25.97
2018-12-26T04:19:20.046Z,31.07
2018-12-26T04:21:49.385Z,31.77
2018-12-26T04:24:19.028Z,26.23
2018-12-26T04:26:48.396Z,28.37
2018-12-26T04:29:17.783Z,27.67
2018-12-26T04:31:47.166Z,26.13
2018-12-26T04:34:16.500Z,27.73
2018-12-26T04:36:45.888Z,25.57
2018-12-26T04:39:15.273Z,25.37
2018-12-26T04:41:44.697Z,26.93
2018-12-26T04:44:14.078Z,28.57
2018-12-26T04:46:43.476Z,26.63
2018-12-26T04:49:12.960Z,26.80
2018-12-26T04:51:42.289Z,26.20
2018-12-26T04:54:11.693Z,27.93
2018-12-26T04:56:41.063Z,25.20
2018-12-26T04:59:10.416Z,26.60
2018-12-26T05:01:42.082Z,25.33
2018-12-26T05:04:10.910Z,27.07
2018-12-26T05:06:40.310Z,26.47
2018-12-26T05:09:09.668Z,28.57
2018-12-26T05:11:39.147Z,29.83
2018-12-26T05:14:08.494Z,26.67
2018-12-26T05:16:37.889Z,25.43
2018-12-26T05:19:07.326Z,25.33
2018-12-26T05:21:36.667Z,26.03
2018-12-26T05:24:05.997Z,25.77
2018-12-26T05:26:35.449Z,26.77
2018-12-26T05:29:04.801Z,28.07
2018-12-26T05:31:34.166Z,22.30
2018-12-26T05:34:03.508Z,23.77
2018-12-26T05:36:32.880Z,22.43
2018-12-26T05:39:02.206Z,27.90
2018-12-26T05:41:31.569Z,25.40
2018-12-26T05:44:00.912Z,27.53
2018-12-26T05:46:30.307Z,23.93
2018-12-26T05:48:59.686Z,22.67
2018-12-26T05:51:28.984Z,21.17
2018-12-26T05:53:58.389Z,26.27
2018-12-26T05:56:27.768Z,24.53
2018-12-26T05:58:57.116Z,22.13
2018-12-26T06:01:26.528Z,23.20
2018-12-26T06:03:55.931Z,23.57
2018-12-26T06:06:25.331Z,24.67
2018-12-26T06:08:54.653Z,23.70
2018-12-26T06:11:24.002Z,25.17
2018-12-26T06:13:53.333Z,24.33
2018-12-26T06:16:22.699Z,23.47
2018-12-26T06:18:52.021Z,26.33
2018-12-26T06:21:21.399Z,25.37
2018-12-26T06:23:50.780Z,22.47
2018-12-26T06:26:20.149Z,23.77
2018-12-26T06:28:49.559Z,24.47
2018-12-26T06:31:18.966Z,25.07
2018-12-26T06:33:48.519Z,25.03
2018-12-26T06:36:17.857Z,22.83
2018-12-26T06:38:47.258Z,26.60
2018-12-26T06:41:16.596Z,21.97
2018-12-26T06:43:45.971Z,22.70
2018-12-26T06:46:15.349Z,23.27
2018-12-26T06:48:44.704Z,26.77
2018-12-26T06:51:14.092Z,31.27
2018-12-26T06:53:43.484Z,23.83
2018-12-26T06:56:12.885Z,20.97
2018-12-26T06:58:42.229Z,22.20
2018-12-26T07:01:11.686Z,22.93
2018-12-26T07:03:41.080Z,27.80
2018-12-26T07:06:10.425Z,23.50
2018-12-26T07:08:39.849Z,21.63
2018-12-26T07:11:09.174Z,20.33
2018-12-26T07:13:38.577Z,23.90
2018-12-26T07:16:07.916Z,20.67
2018-12-26T07:18:37.316Z,20.50
2018-12-26T07:21:06.759Z,21.17
2018-12-26T07:23:36.110Z,20.47
2018-12-26T07:26:05.464Z,20.17
2018-12-26T07:28:34.810Z,22.83
2018-12-26T07:31:04.125Z,20.43
2018-12-26T07:33:33.514Z,19.43
2018-12-26T07:36:02.829Z,21.23
2018-12-26T07:38:32.208Z,23.87
2018-12-26T07:41:01.553Z,21.83
2018-12-26T07:43:30.909Z,18.87
2018-12-26T07:46:00.311Z,22.00
2018-12-26T07:48:29.683Z,24.73
2018-12-26T07:50:59.013Z,19.67
2018-12-26T07:53:28.403Z,20.27
2018-12-26T07:55:57.772Z,19.20
2018-12-26T07:58:27.090Z,20.30
2018-12-26T08:00:56.496Z,21.30
2018-12-26T08:03:25.965Z,21.07
2018-12-26T08:05:55.329Z,18.87
2018-12-26T08:08:24.703Z,21.53
2018-12-26T08:10:54.004Z,20.23
2018-12-26T08:13:23.380Z,23.27
2018-12-26T08:15:52.766Z,18.77
2018-12-26T08:18:22.160Z,18.47
2018-12-26T08:20:51.539Z,19.70
2018-12-26T08:23:20.953Z,18.03
2018-12-26T08:25:50.321Z,18.63
2018-12-26T08:28:26.588Z,17.70
2018-12-26T08:30:50.918Z,19.70
2018-12-26T08:33:20.397Z,19.37
2018-12-26T08:35:49.828Z,20.40
2018-12-26T08:38:19.364Z,16.97
2018-12-26T08:40:48.718Z,19.00
2018-12-26T08:43:18.158Z,23.20
2018-12-26T08:45:47.598Z,17.70
2018-12-26T08:48:18.272Z,17.60
2018-12-26T08:50:47.653Z,18.60
2018-12-26T08:53:17.058Z,17.83
2018-12-26T08:55:46.509Z,21.17
2018-12-26T08:58:15.891Z,17.60
2018-12-26T09:00:48.037Z,19.00
2018-12-26T09:03:17.408Z,18.47
2018-12-26T09:05:46.740Z,19.17
2018-12-26T09:08:16.146Z,18.90
2018-12-26T09:10:45.584Z,19.33
2018-12-26T09:13:16.061Z,22.03
2018-12-26T09:15:45.953Z,21.37
2018-12-26T09:18:15.288Z,17.10
2018-12-26T09:20:44.607Z,16.13
2018-12-26T09:23:13.993Z,16.03
2018-12-26T09:25:45.787Z,16.33
2018-12-26T09:28:15.158Z,20.00
2018-12-26T09:30:46.341Z,19.27
2018-12-26T09:33:16.113Z,19.07
2018-12-26T09:35:45.476Z,17.63
2018-12-26T09:38:14.835Z,17.67
2018-12-26T09:40:44.177Z,17.07
2018-12-26T09:43:13.518Z,17.07
2018-12-26T09:45:43.018Z,16.33
2018-12-26T09:48:12.586Z,18.03
2018-12-26T09:50:41.949Z,19.03
2018-12-26T09:53:11.300Z,17.60
2018-12-26T09:55:40.649Z,18.30
2018-12-26T09:58:10.085Z,17.13
2018-12-26T10:00:39.485Z,22.67
2018-12-26T10:03:08.846Z,17.03
2018-12-26T10:05:38.163Z,18.93
2018-12-26T10:08:07.610Z,17.40
2018-12-26T10:10:37.001Z,17.93
2018-12-26T10:13:06.342Z,17.73
2018-12-26T10:15:35.700Z,17.33
2018-12-26T10:18:05.041Z,19.73
2018-12-26T10:20:34.407Z,17.47
2018-12-26T10:23:03.927Z,18.37
2018-12-26T10:25:33.286Z,19.03
2018-12-26T10:28:02.682Z,19.30
2018-12-26T10:30:32.064Z,18.83
2018-12-26T10:33:01.432Z,18.33
2018-12-26T10:35:30.788Z,16.90
2018-12-26T10:38:00.172Z,19.73
2018-12-26T10:40:29.527Z,17.70
2018-12-26T10:42:58.981Z,15.60
2018-12-26T10:45:28.295Z,19.83
2018-12-26T10:47:57.633Z,19.03
2018-12-26T10:50:26.990Z,20.17
2018-12-26T10:52:56.334Z,19.67
2018-12-26T10:55:25.680Z,20.73
2018-12-26T10:57:55.038Z,16.30
2018-12-26T11:00:24.384Z,16.40
2018-12-26T11:02:53.759Z,19.07
2018-12-26T11:05:29.510Z,19.23
2018-12-26T11:07:54.247Z,17.47
2018-12-26T11:10:23.681Z,16.00
2018-12-26T11:12:53.051Z,16.23
2018-12-26T11:15:22.410Z,17.77
2018-12-26T11:17:52.587Z,17.53
2018-12-26T11:20:22.081Z,16.90
2018-12-26T11:22:51.424Z,15.93
2018-12-26T11:25:20.785Z,13.30
2018-12-26T11:27:50.198Z,15.80
2018-12-26T11:30:19.577Z,15.43
2018-12-26T11:32:49.017Z,16.73
2018-12-26T11:35:18.380Z,14.60
2018-12-26T11:37:47.753Z,15.47
2018-12-26T11:40:17.083Z,13.40
2018-12-26T11:42:46.528Z,17.13
2018-12-26T11:45:15.934Z,17.70
2018-12-26T11:47:45.362Z,18.67
2018-12-26T11:50:14.765Z,16.10
2018-12-26T11:52:44.103Z,15.77
2018-12-26T11:55:13.443Z,18.67
2018-12-26T11:57:42.869Z,14.37
2018-12-26T12:00:12.214Z,15.90
2018-12-26T12:02:41.550Z,17.90
2018-12-26T12:05:10.990Z,16.47
2018-12-26T12:07:40.376Z,15.33
2018-12-26T12:10:09.788Z,17.40
2018-12-26T12:12:39.125Z,14.73
2018-12-26T12:15:08.478Z,20.83
2018-12-26T12:17:37.844Z,15.57
2018-12-26T12:20:08.935Z,13.20
2018-12-26T12:22:38.354Z,20.00
2018-12-26T12:25:07.688Z,15.07
2018-12-26T12:27:37.041Z,15.93
2018-12-26T12:30:06.857Z,18.93
2018-12-26T12:32:36.204Z,14.97
2018-12-26T12:35:06.190Z,13.53
2018-12-26T12:37:35.574Z,16.60
2018-12-26T12:40:05.429Z,14.47
2018-12-26T12:42:34.944Z,14.37
2018-12-26T12:45:04.448Z,17.07
2018-12-26T12:47:33.777Z,13.43
2018-12-26T12:50:03.277Z,16.37
2018-12-26T12:52:32.692Z,12.50
2018-12-26T12:55:02.057Z,13.53
2018-12-26T12:57:31.378Z,12.73
2018-12-26T13:00:00.754Z,15.00
2018-12-26T13:02:30.055Z,15.37
2018-12-26T13:04:59.422Z,11.33
2018-12-26T13:07:28.738Z,12.13
2018-12-26T13:09:58.076Z,13.47
2018-12-26T13:12:27.433Z,10.43
2018-12-26T13:14:56.819Z,11.83
2018-12-26T13:17:26.258Z,11.40
2018-12-26T13:19:55.598Z,10.67
2018-12-26T13:22:25.037Z,9.77
2018-12-26T13:24:54.388Z,11.43
2018-12-26T13:27:24.002Z,9.87
2018-12-26T13:29:53.969Z,11.00
2018-12-26T13:32:23.534Z,9.13
2018-12-26T13:34:52.946Z,12.43
2018-12-26T13:37:22.397Z,11.57
2018-12-26T13:39:51.745Z,9.53
2018-12-26T13:42:21.206Z,9.13
2018-12-26T13:44:50.580Z,8.70
2018-12-26T13:47:20.010Z,8.30
2018-12-26T13:49:49.440Z,10.93
2018-12-26T13:52:18.858Z,9.53
2018-12-26T13:54:48.315Z,6.50
2018-12-26T13:57:17.716Z,5.90
2018-12-26T13:59:47.341Z,4.23
2018-12-26T14:02:16.711Z,5.73
2018-12-26T14:04:46.129Z,6.80
2018-12-26T14:07:15.493Z,4.73
2018-12-26T14:09:44.918Z,4.03
2018-12-26T14:12:14.314Z,13.13
2018-12-26T14:14:43.775Z,7.90
2018-12-26T14:17:13.079Z,6.00
2018-12-26T14:19:42.443Z,4.00
2018-12-26T14:22:11.899Z,4.47
2018-12-26T14:24:41.312Z,5.13
2018-12-26T14:27:10.689Z,5.03
2018-12-26T14:29:40.063Z,19.60
2018-12-26T14:32:09.490Z,11.80
2018-12-26T14:34:38.914Z,14.47
2018-12-26T14:37:08.268Z,9.33
2018-12-26T14:39:37.663Z,17.47
2018-12-26T14:42:07.102Z,6.17
2018-12-26T14:44:36.482Z,4.87
2018-12-26T14:47:05.859Z,4.10
2018-12-26T14:49:35.393Z,15.73
2018-12-26T14:52:04.805Z,13.17
2018-12-26T14:54:34.172Z,7.67
2018-12-26T14:57:03.613Z,4.47
2018-12-26T14:59:32.992Z,3.90
2018-12-26T15:02:02.357Z,9.03
2018-12-26T15:04:31.749Z,5.23
2018-12-26T15:07:01.097Z,5.97
2018-12-26T15:09:30.508Z,5.50
2018-12-26T15:11:59.851Z,7.87
2018-12-26T15:14:29.413Z,7.47
2018-12-26T15:16:58.755Z,5.50
2018-12-26T15:19:28.145Z,7.33
2018-12-26T15:21:57.579Z,6.17
2018-12-26T15:24:27.006Z,5.23
2018-12-26T15:26:56.432Z,5.67
2018-12-26T15:29:25.792Z,8.87
2018-12-26T15:31:55.198Z,7.33
2018-12-26T15:34:24.684Z,5.77
2018-12-26T15:36:54.045Z,8.03
2018-12-26T15:39:23.450Z,6.30
2018-12-26T15:41:52.823Z,7.20
2018-12-26T15:44:22.192Z,4.97
2018-12-26T15:46:51.692Z,7.67
2018-12-26T15:49:21.001Z,6.60
2018-12-26T15:51:50.425Z,6.77
2018-12-26T15:54:20.021Z,6.97
2018-12-26T15:56:49.472Z,5.90
2018-12-26T15:59:18.941Z,7.13
2018-12-26T16:01:48.383Z,9.37
2018-12-26T16:04:17.785Z,8.95
2018-12-26T16:06:48.732Z,10.53
2018-12-26T16:09:18.133Z,9.97
2018-12-26T16:11:47.599Z,9.03
2018-12-26T16:14:18.882Z,10.43
2018-12-26T16:16:48.264Z,12.67
2018-12-26T16:19:17.652Z,9.93
2018-12-26T16:21:47.007Z,8.97
2018-12-26T16:24:16.404Z,11.47
2018-12-26T16:26:45.953Z,8.50
2018-12-26T16:29:15.446Z,10.03
2018-12-26T16:31:44.803Z,11.23
2018-12-26T16:34:14.248Z,18.43
2018-12-26T16:36:43.681Z,16.43
2018-12-26T16:39:13.215Z,21.57
2018-12-26T16:41:42.570Z,23.03
2018-12-26T16:44:13.552Z,14.83
2018-12-26T16:46:42.939Z,11.80
2018-12-26T16:49:12.481Z,8.80
2018-12-26T16:51:41.989Z,13.90
2018-12-26T16:54:11.418Z,20.07
2018-12-26T16:56:40.849Z,24.87
2018-12-26T16:59:10.233Z,14.60
2018-12-26T17:01:39.655Z,10.73
2018-12-26T17:04:09.087Z,11.00
2018-12-26T17:06:38.440Z,12.97
2018-12-26T17:09:10.118Z,15.70
2018-12-26T17:11:39.628Z,9.03
2018-12-26T17:14:09.050Z,9.10
2018-12-26T17:16:38.558Z,6.87
2018-12-26T17:19:07.906Z,6.83
2018-12-26T17:21:37.310Z,5.17
2018-12-26T17:24:06.659Z,5.50
2018-12-26T17:26:36.080Z,6.73
2018-12-26T17:29:05.444Z,5.67
2018-12-26T17:31:34.861Z,7.43
2018-12-26T17:34:04.277Z,9.73
2018-12-26T17:36:33.725Z,8.97
2018-12-26T17:39:04.256Z,6.60
2018-12-26T17:41:33.767Z,8.20
2018-12-26T17:44:03.232Z,12.67
2018-12-26T17:46:32.710Z,14.67
2018-12-26T17:49:02.080Z,8.90
2018-12-26T17:51:31.431Z,6.27
2018-12-26T17:54:24.654Z,5.70
2018-12-26T17:57:06.682Z,7.53
2018-12-26T17:59:50.494Z,5.20
2018-12-26T18:02:27.564Z,7.67
2018-12-26T18:04:57.055Z,6.33
2018-12-26T18:07:26.532Z,11.07
2018-12-26T18:09:56.014Z,6.37
2018-12-26T18:12:25.450Z,7.50
2018-12-26T18:14:55.294Z,5.37
2018-12-26T18:17:24.757Z,6.30
2018-12-26T18:19:54.087Z,4.70
2018-12-26T18:22:23.440Z,5.73
2018-12-26T18:24:53.014Z,6.13
2018-12-26T18:27:22.445Z,5.90
2018-12-26T18:29:51.919Z,6.33
2018-12-26T18:32:21.293Z,8.17
2018-12-26T18:34:50.708Z,5.63
2018-12-26T18:37:23.112Z,3.17
2018-12-26T18:39:52.484Z,4.87
2018-12-26T18:42:21.890Z,5.67
2018-12-26T18:44:51.239Z,7.63
2018-12-26T18:47:20.760Z,7.70
2018-12-26T18:49:51.197Z,6.10
2018-12-26T18:52:20.599Z,4.73
2018-12-26T18:54:49.955Z,5.23
2018-12-26T18:57:19.302Z,4.93
2018-12-26T18:59:48.759Z,6.87
2018-12-26T19:02:18.196Z,4.60
2018-12-26T19:04:47.645Z,7.90
2018-12-26T19:07:17.019Z,6.73
2018-12-26T19:09:46.430Z,8.47
2018-12-26T19:12:15.880Z,7.10
2018-12-26T19:14:45.319Z,8.43
2018-12-26T19:17:14.728Z,5.63
2018-12-26T19:19:44.187Z,9.80
2018-12-26T19:22:13.671Z,9.07
2018-12-26T19:24:43.097Z,10.73
2018-12-26T19:27:12.444Z,8.77
2018-12-26T19:29:41.824Z,9.07
2018-12-26T19:32:11.198Z,8.80
2018-12-26T19:34:40.585Z,8.73
2018-12-26T19:37:09.960Z,8.50
2018-12-26T19:39:39.418Z,8.60
2018-12-26T19:42:09.018Z,7.47
2018-12-26T19:44:38.667Z,6.90
2018-12-26T19:47:08.296Z,9.63
2018-12-26T19:49:37.716Z,8.63
2018-12-26T19:52:07.118Z,7.80
2018-12-26T19:54:36.678Z,11.87
2018-12-26T19:57:06.233Z,12.13
2018-12-26T19:59:35.712Z,10.73
2018-12-26T20:02:05.503Z,5.63
2018-12-26T20:04:34.962Z,13.70
2018-12-26T20:07:04.396Z,11.37
2018-12-26T20:09:33.895Z,12.63
2018-12-26T20:12:09.201Z,15.50
2018-12-26T20:14:38.488Z,15.47
2018-12-26T20:17:07.975Z,12.00
2018-12-26T20:19:37.406Z,11.83
2018-12-26T20:22:06.913Z,10.77
2018-12-26T20:24:36.313Z,11.30
2018-12-26T20:27:05.748Z,11.40
2018-12-26T20:29:35.082Z,9.80
2018-12-26T20:32:04.559Z,12.13
2018-12-26T20:34:34.094Z,10.00
2018-12-26T20:37:03.463Z,15.40
2018-12-26T20:39:32.945Z,12.07
2018-12-26T20:42:02.326Z,9.20
2018-12-26T20:44:31.695Z,8.60
2018-12-26T20:47:01.111Z,11.90
2018-12-26T20:49:31.540Z,12.77
2018-12-26T20:52:00.861Z,13.77
2018-12-26T20:54:30.277Z,9.77
2018-12-26T20:56:59.688Z,12.13
2018-12-26T20:59:29.019Z,11.13
2018-12-26T21:02:05.656Z,12.07
2018-12-26T21:04:29.497Z,12.33
2018-12-26T21:06:58.968Z,9.00
2018-12-26T21:09:28.394Z,10.23
2018-12-26T21:11:57.814Z,12.03
2018-12-26T21:14:27.180Z,10.43
2018-12-26T21:16:56.604Z,9.83
2018-12-26T21:19:25.966Z,9.07
2018-12-26T21:21:55.410Z,9.73
2018-12-26T21:24:24.788Z,7.00
2018-12-26T21:26:54.160Z,8.90
2018-12-26T21:29:23.604Z,12.70
2018-12-26T21:31:53.019Z,10.20
2018-12-26T21:34:22.390Z,8.03
2018-12-26T21:36:51.807Z,10.60
2018-12-26T21:39:21.126Z,9.93
2018-12-26T21:41:50.530Z,8.50
2018-12-26T21:44:19.882Z,7.70
2018-12-26T21:46:49.402Z,9.70
2018-12-26T21:49:18.967Z,8.93
2018-12-26T21:51:48.500Z,12.07
2018-12-26T21:54:17.959Z,7.80
2018-12-26T21:56:49.035Z,7.23
2018-12-26T21:59:18.445Z,8.43
2018-12-26T22:01:47.839Z,8.37
2018-12-26T22:04:17.154Z,12.13
2018-12-26T22:06:46.507Z,11.03
2018-12-26T22:09:15.965Z,12.50
2018-12-26T22:11:45.362Z,11.37
2018-12-26T22:14:14.778Z,9.47
2018-12-26T22:16:44.180Z,9.63
2018-12-26T22:19:13.707Z,10.50
2018-12-26T22:21:43.062Z,10.13
2018-12-26T22:24:12.424Z,11.13
2018-12-26T22:26:43.402Z,10.00
2018-12-26T22:29:12.946Z,11.13
2018-12-26T22:31:42.577Z,10.97
2018-12-26T22:34:11.948Z,11.27
2018-12-26T22:36:41.305Z,13.23
2018-12-26T22:39:10.602Z,11.07
2018-12-26T22:41:39.986Z,18.33
2018-12-26T22:44:09.398Z,16.17
2018-12-26T22:46:38.900Z,12.50
2018-12-26T22:49:08.417Z,11.20
2018-12-26T22:51:41.822Z,9.17
2018-12-26T22:54:09.167Z,8.73
2018-12-26T22:56:38.676Z,11.27
2018-12-26T22:59:08.108Z,9.83
2018-12-26T23:01:37.667Z,12.33
2018-12-26T23:04:07.217Z,10.17
2018-12-26T23:06:36.633Z,9.63
2018-12-26T23:09:08.046Z,10.13
2018-12-26T23:11:37.549Z,9.97
2018-12-26T23:14:07.047Z,9.13
2018-12-26T23:16:36.496Z,10.97
2018-12-26T23:19:05.895Z,10.20
2018-12-26T23:21:35.239Z,9.27
2018-12-26T23:24:04.668Z,9.27
2018-12-26T23:26:34.051Z,10.23
2018-12-26T23:29:06.773Z,11.03
2018-12-26T23:31:36.158Z,10.13
2018-12-26T23:34:05.538Z,9.87
2018-12-26T23:36:34.997Z,10.63
2018-12-26T23:39:07.255Z,9.90
2018-12-26T23:41:36.638Z,11.90
2018-12-26T23:44:07.826Z,12.37
2018-12-26T23:46:37.166Z,9.60
2018-12-26T23:49:06.500Z,11.03
2018-12-26T23:51:35.906Z,12.07
2018-12-26T23:54:05.239Z,13.97
2018-12-26T23:56:34.665Z,13.17
2018-12-26T23:59:04.014Z,12.93
